sensor_id;sensor_type;location;lat;lon;timestamp;pressure;altitude;pressure_sealevel;temperature;humidity
68077;BME280;54866;53.458;14.540;2023-01-25T00:00:16;102962.67;;;-1.24;88.27
68077;BME280;54866;53.458;14.540;2023-01-25T00:02:46;102960.93;;;-1.26;88.47
68077;BME280;54866;53.458;14.540;2023-01-25T00:05:16;102963.02;;;-1.24;88.63
68077;BME280;54866;53.458;14.540;2023-01-25T00:07:45;102959.39;;;-1.24;88.78
68077;BME280;54866;53.458;14.540;2023-01-25T00:10:15;102956.46;;;-1.22;88.72
68077;BME280;54866;53.458;14.540;2023-01-25T00:12:45;102956.50;;;-1.20;88.47
68077;BME280;54866;53.458;14.540;2023-01-25T00:15:15;102948.02;;;-1.22;88.63
68077;BME280;54866;53.458;14.540;2023-01-25T00:17:44;102946.81;;;-1.19;88.63
68077;BME280;54866;53.458;14.540;2023-01-25T00:20:14;102942.48;;;-1.19;88.64
68077;BME280;54866;53.458;14.540;2023-01-25T00:22:44;102941.11;;;-1.20;88.71
68077;BME280;54866;53.458;14.540;2023-01-25T00:25:14;102936.61;;;-1.19;88.93
68077;BME280;54866;53.458;14.540;2023-01-25T00:27:43;102932.29;;;-1.19;88.87
68077;BME280;54866;53.458;14.540;2023-01-25T00:30:14;102937.14;;;-1.18;88.75
68077;BME280;54866;53.458;14.540;2023-01-25T00:32:51;102935.23;;;-1.19;88.59
68077;BME280;54866;53.458;14.540;2023-01-25T00:35:22;102933.80;;;-1.22;88.55
68077;BME280;54866;53.458;14.540;2023-01-25T00:37:53;102926.17;;;-1.26;88.75
68077;BME280;54866;53.458;14.540;2023-01-25T00:40:23;102924.27;;;-1.27;88.74
68077;BME280;54866;53.458;14.540;2023-01-25T00:42:52;102922.02;;;-1.27;88.77
68077;BME280;54866;53.458;14.540;2023-01-25T00:45:22;102916.13;;;-1.28;89.18
68077;BME280;54866;53.458;14.540;2023-01-25T00:47:55;102920.11;;;-1.26;88.90
68077;BME280;54866;53.458;14.540;2023-01-25T00:50:25;102921.50;;;-1.28;88.95
68077;BME280;54866;53.458;14.540;2023-01-25T00:52:54;102916.81;;;-1.30;89.22
68077;BME280;54866;53.458;14.540;2023-01-25T00:55:24;102910.58;;;-1.32;89.28
68077;BME280;54866;53.458;14.540;2023-01-25T00:57:54;102911.61;;;-1.32;89.32
68077;BME280;54866;53.458;14.540;2023-01-25T01:00:23;102911.44;;;-1.32;89.44
68077;BME280;54866;53.458;14.540;2023-01-25T01:02:53;102912.14;;;-1.31;89.43
68077;BME280;54866;53.458;14.540;2023-01-25T01:05:23;102909.72;;;-1.30;89.51
68077;BME280;54866;53.458;14.540;2023-01-25T01:07:56;102911.98;;;-1.30;89.53
68077;BME280;54866;53.458;14.540;2023-01-25T01:10:25;102908.17;;;-1.30;89.46
68077;BME280;54866;53.458;14.540;2023-01-25T01:12:55;102905.58;;;-1.29;89.51
68077;BME280;54866;53.458;14.540;2023-01-25T01:15:25;102910.42;;;-1.28;89.76
68077;BME280;54866;53.458;14.540;2023-01-25T01:17:54;102909.39;;;-1.27;89.83
68077;BME280;54866;53.458;14.540;2023-01-25T01:20:24;102908.52;;;-1.28;89.90
68077;BME280;54866;53.458;14.540;2023-01-25T01:22:53;102906.95;;;-1.29;89.97
68077;BME280;54866;53.458;14.540;2023-01-25T01:25:23;102903.50;;;-1.31;89.81
68077;BME280;54866;53.458;14.540;2023-01-25T01:27:53;102906.95;;;-1.32;89.77
68077;BME280;54866;53.458;14.540;2023-01-25T01:30:22;102907.11;;;-1.35;89.77
68077;BME280;54866;53.458;14.540;2023-01-25T01:32:52;102901.73;;;-1.37;89.89
68077;BME280;54866;53.458;14.540;2023-01-25T01:35:22;102897.75;;;-1.38;90.11
68077;BME280;54866;53.458;14.540;2023-01-25T01:37:51;102896.20;;;-1.38;90.34
68077;BME280;54866;53.458;14.540;2023-01-25T01:40:21;102891.34;;;-1.40;90.40
68077;BME280;54866;53.458;14.540;2023-01-25T01:42:59;102888.55;;;-1.39;90.30
68077;BME280;54866;53.458;14.540;2023-01-25T01:45:54;102889.25;;;-1.41;90.35
68077;BME280;54866;53.458;14.540;2023-01-25T01:48:32;102887.55;;;-1.38;90.58
68077;BME280;54866;53.458;14.540;2023-01-25T01:51:05;102888.08;;;-1.37;90.51
68077;BME280;54866;53.458;14.540;2023-01-25T01:53:39;102887.92;;;-1.35;90.58
68077;BME280;54866;53.458;14.540;2023-01-25T01:56:13;102885.33;;;-1.34;90.54
68077;BME280;54866;53.458;14.540;2023-01-25T01:58:47;102875.65;;;-1.32;90.41
68077;BME280;54866;53.458;14.540;2023-01-25T02:01:19;102869.08;;;-1.30;90.57
68077;BME280;54866;53.458;14.540;2023-01-25T02:03:49;102869.27;;;-1.29;90.59
68077;BME280;54866;53.458;14.540;2023-01-25T02:06:26;102869.60;;;-1.30;90.67
68077;BME280;54866;53.458;14.540;2023-01-25T02:08:56;102869.77;;;-1.31;90.61
68077;BME280;54866;53.458;14.540;2023-01-25T02:11:27;102867.52;;;-1.32;90.97
68077;BME280;54866;53.458;14.540;2023-01-25T02:13:58;102862.67;;;-1.34;91.00
68077;BME280;54866;53.458;14.540;2023-01-25T02:16:28;102859.21;;;-1.35;91.05
68077;BME280;54866;53.458;14.540;2023-01-25T02:18:59;102859.55;;;-1.36;90.90
68077;BME280;54866;53.458;14.540;2023-01-25T02:21:36;102859.89;;;-1.37;90.89
68077;BME280;54866;53.458;14.540;2023-01-25T02:24:13;102860.07;;;-1.36;91.11
68077;BME280;54866;53.458;14.540;2023-01-25T02:26:46;102856.79;;;-1.34;91.16
68077;BME280;54866;53.458;14.540;2023-01-25T02:29:17;102856.80;;;-1.34;91.17
68077;BME280;54866;53.458;14.540;2023-01-25T02:31:53;102853.16;;;-1.33;91.45
68077;BME280;54866;53.458;14.540;2023-01-25T02:34:27;102850.05;;;-1.33;91.14
68077;BME280;54866;53.458;14.540;2023-01-25T02:36:56;102852.11;;;-1.36;91.00
68077;BME280;54866;53.458;14.540;2023-01-25T02:39:27;102852.29;;;-1.37;91.18
68077;BME280;54866;53.458;14.540;2023-01-25T02:41:57;102847.41;;;-1.39;90.91
68077;BME280;54866;53.458;14.540;2023-01-25T02:44:29;102845.48;;;-1.42;90.88
68077;BME280;54866;53.458;14.540;2023-01-25T02:47:00;102840.82;;;-1.43;91.22
68077;BME280;54866;53.458;14.540;2023-01-25T02:49:29;102842.20;;;-1.44;91.10
68077;BME280;54866;53.458;14.540;2023-01-25T02:51:59;102839.60;;;-1.44;91.21
68077;BME280;54866;53.458;14.540;2023-01-25T02:54:28;102841.50;;;-1.45;91.11
68077;BME280;54866;53.458;14.540;2023-01-25T02:56:58;102838.56;;;-1.45;91.49
68077;BME280;54866;53.458;14.540;2023-01-25T02:59:28;102832.52;;;-1.44;91.45
68077;BME280;54866;53.458;14.540;2023-01-25T03:01:57;102820.75;;;-1.46;91.39
68077;BME280;54866;53.458;14.540;2023-01-25T03:04:27;102820.40;;;-1.47;91.33
68077;BME280;54866;53.458;14.540;2023-01-25T03:06:56;102814.84;;;-1.52;91.34
68077;BME280;54866;53.458;14.540;2023-01-25T03:09:26;102812.26;;;-1.53;91.37
68077;BME280;54866;53.458;14.540;2023-01-25T03:11:55;102808.45;;;-1.55;91.46
68077;BME280;54866;53.458;14.540;2023-01-25T03:14:25;102813.09;;;-1.56;91.49
68077;BME280;54866;53.458;14.540;2023-01-25T03:16:54;102809.77;;;-1.59;91.49
68077;BME280;54866;53.458;14.540;2023-01-25T03:19:24;102812.88;;;-1.60;91.79
68077;BME280;54866;53.458;14.540;2023-01-25T03:21:53;102805.79;;;-1.63;91.76
68077;BME280;54866;53.458;14.540;2023-01-25T03:24:23;102801.46;;;-1.62;92.04
68077;BME280;54866;53.458;14.540;2023-01-25T03:26:52;102792.98;;;-1.63;92.03
68077;BME280;54866;53.458;14.540;2023-01-25T03:29:41;102791.61;;;-1.64;92.28
68077;BME280;54866;53.458;14.540;2023-01-25T03:32:11;102789.52;;;-1.64;92.32
68077;BME280;54866;53.458;14.540;2023-01-25T03:34:41;102783.30;;;-1.65;92.34
68077;BME280;54866;53.458;14.540;2023-01-25T03:37:10;102780.53;;;-1.66;92.49
68077;BME280;54866;53.458;14.540;2023-01-25T03:39:40;102775.87;;;-1.67;92.61
68077;BME280;54866;53.458;14.540;2023-01-25T03:42:09;102774.13;;;-1.69;92.64
68077;BME280;54866;53.458;14.540;2023-01-25T03:44:39;102777.08;;;-1.69;92.78
68077;BME280;54866;53.458;14.540;2023-01-25T03:47:08;102769.98;;;-1.68;92.78
68077;BME280;54866;53.458;14.540;2023-01-25T03:49:38;102761.34;;;-1.67;92.74
68077;BME280;54866;53.458;14.540;2023-01-25T03:52:08;102756.69;;;-1.67;92.69
68077;BME280;54866;53.458;14.540;2023-01-25T03:54:37;102746.82;;;-1.69;92.72
68077;BME280;54866;53.458;14.540;2023-01-25T03:57:07;102750.11;;;-1.68;92.77
68077;BME280;54866;53.458;14.540;2023-01-25T03:59:36;102748.55;;;-1.68;92.68
68077;BME280;54866;53.458;14.540;2023-01-25T04:02:06;102745.45;;;-1.68;92.75
68077;BME280;54866;53.458;14.540;2023-01-25T04:04:36;102742.86;;;-1.67;92.81
68077;BME280;54866;53.458;14.540;2023-01-25T04:07:05;102738.71;;;-1.67;92.92
68077;BME280;54866;53.458;14.540;2023-01-25T04:09:35;102735.95;;;-1.68;93.07
68077;BME280;54866;53.458;14.540;2023-01-25T04:12:05;102734.91;;;-1.67;92.99
68077;BME280;54866;53.458;14.540;2023-01-25T04:14:34;102728.16;;;-1.68;93.09
68077;BME280;54866;53.458;14.540;2023-01-25T04:17:04;102728.86;;;-1.67;93.29
68077;BME280;54866;53.458;14.540;2023-01-25T04:19:35;102728.52;;;-1.66;93.39
68077;BME280;54866;53.458;14.540;2023-01-25T04:22:05;102728.18;;;-1.65;93.44
68077;BME280;54866;53.458;14.540;2023-01-25T04:24:34;102725.23;;;-1.65;93.61
68077;BME280;54866;53.458;14.540;2023-01-25T04:27:04;102719.19;;;-1.65;93.58
68077;BME280;54866;53.458;14.540;2023-01-25T04:29:33;102717.29;;;-1.65;93.45
68077;BME280;54866;53.458;14.540;2023-01-25T04:32:03;102712.62;;;-1.66;93.37
68077;BME280;54866;53.458;14.540;2023-01-25T04:34:33;102701.21;;;-1.67;93.71
68077;BME280;54866;53.458;14.540;2023-01-25T04:37:02;102699.14;;;-1.66;93.57
68077;BME280;54866;53.458;14.540;2023-01-25T04:39:32;102699.48;;;-1.66;93.59
68077;BME280;54866;53.458;14.540;2023-01-25T04:42:02;102691.02;;;-1.66;93.83
68077;BME280;54866;53.458;14.540;2023-01-25T04:44:31;102690.33;;;-1.65;93.87
68077;BME280;54866;53.458;14.540;2023-01-25T04:47:01;102687.02;;;-1.69;93.84
68077;BME280;54866;53.458;14.540;2023-01-25T04:49:31;102690.84;;;-1.66;94.10
68077;BME280;54866;53.458;14.540;2023-01-25T04:52:00;102689.29;;;-1.67;94.15
68077;BME280;54866;53.458;14.540;2023-01-25T04:54:30;102686.52;;;-1.65;94.16
68077;BME280;54866;53.458;14.540;2023-01-25T04:56:59;102683.94;;;-1.66;94.15
68077;BME280;54866;53.458;14.540;2023-01-25T04:59:29;102683.07;;;-1.66;94.15
68077;BME280;54866;53.458;14.540;2023-01-25T05:01:58;102681.85;;;-1.68;94.01
68077;BME280;54866;53.458;14.540;2023-01-25T05:04:28;102673.90;;;-1.69;94.08
68077;BME280;54866;53.458;14.540;2023-01-25T05:06:58;102669.41;;;-1.68;94.16
68077;BME280;54866;53.458;14.540;2023-01-25T05:09:27;102659.55;;;-1.70;94.44
68077;BME280;54866;53.458;14.540;2023-01-25T05:11:58;102656.45;;;-1.68;94.46
68077;BME280;54866;53.458;14.540;2023-01-25T05:14:27;102654.02;;;-1.70;94.60
68077;BME280;54866;53.458;14.540;2023-01-25T05:16:57;102647.80;;;-1.70;94.52
68077;BME280;54866;53.458;14.540;2023-01-25T05:19:26;102648.32;;;-1.68;94.69
68077;BME280;54866;53.458;14.540;2023-01-25T05:21:56;102651.44;;;-1.69;94.92
68077;BME280;54866;53.458;14.540;2023-01-25T05:24:29;102652.82;;;-1.69;94.78
68077;BME280;54866;53.458;14.540;2023-01-25T05:26:59;102653.34;;;-1.69;94.68
68077;BME280;54866;53.458;14.540;2023-01-25T05:29:32;102649.35;;;-1.71;94.51
68077;BME280;54866;53.458;14.540;2023-01-25T05:32:05;102655.06;;;-1.70;94.76
68077;BME280;54866;53.458;14.540;2023-01-25T05:34:36;102648.49;;;-1.71;94.57
68077;BME280;54866;53.458;14.540;2023-01-25T05:37:07;102649.53;;;-1.71;94.42
68077;BME280;54866;53.458;14.540;2023-01-25T05:39:37;102649.52;;;-1.71;94.63
68077;BME280;54866;53.458;14.540;2023-01-25T05:42:11;102647.63;;;-1.71;94.78
68077;BME280;54866;53.458;14.540;2023-01-25T05:44:41;102657.48;;;-1.70;94.68
68077;BME280;54866;53.458;14.540;2023-01-25T05:47:13;102653.66;;;-1.72;94.87
68077;BME280;54866;53.458;14.540;2023-01-25T05:49:43;102659.04;;;-1.69;94.89
68077;BME280;54866;53.458;14.540;2023-01-25T05:52:14;102657.84;;;-1.69;94.78
68077;BME280;54866;53.458;14.540;2023-01-25T05:54:44;102652.48;;;-1.68;94.69
68077;BME280;54866;53.458;14.540;2023-01-25T05:57:15;102643.31;;;-1.69;94.82
68077;BME280;54866;53.458;14.540;2023-01-25T05:59:45;102643.48;;;-1.68;94.69
68077;BME280;54866;53.458;14.540;2023-01-25T06:02:14;102643.15;;;-1.68;94.95
68077;BME280;54866;53.458;14.540;2023-01-25T06:04:44;102638.13;;;-1.70;94.71
68077;BME280;54866;53.458;14.540;2023-01-25T06:07:13;102629.14;;;-1.70;94.77
68077;BME280;54866;53.458;14.540;2023-01-25T06:09:43;102636.74;;;-1.70;94.75
68077;BME280;54866;53.458;14.540;2023-01-25T06:12:12;102631.73;;;-1.71;94.84
68077;BME280;54866;53.458;14.540;2023-01-25T06:14:43;102628.98;;;-1.72;94.85
68077;BME280;54866;53.458;14.540;2023-01-25T06:17:14;102633.98;;;-1.72;95.07
68077;BME280;54866;53.458;14.540;2023-01-25T06:19:44;102636.23;;;-1.71;94.98
68077;BME280;54866;53.458;14.540;2023-01-25T06:22:13;102638.81;;;-1.71;95.08
68077;BME280;54866;53.458;14.540;2023-01-25T06:24:43;102634.67;;;-1.70;94.78
68077;BME280;54866;53.458;14.540;2023-01-25T06:27:12;102628.63;;;-1.71;94.58
68077;BME280;54866;53.458;14.540;2023-01-25T06:29:42;102630.67;;;-1.73;94.50
68077;BME280;54866;53.458;14.540;2023-01-25T06:32:11;102626.68;;;-1.74;94.64
68077;BME280;54866;53.458;14.540;2023-01-25T06:34:41;102631.52;;;-1.75;94.72
68077;BME280;54866;53.458;14.540;2023-01-25T06:37:10;102623.92;;;-1.77;94.86
68077;BME280;54866;53.458;14.540;2023-01-25T06:39:40;102624.25;;;-1.77;94.85
68077;BME280;54866;53.458;14.540;2023-01-25T06:42:10;102618.55;;;-1.79;94.56
68077;BME280;54866;53.458;14.540;2023-01-25T06:44:39;102613.88;;;-1.82;94.73
68077;BME280;54866;53.458;14.540;2023-01-25T06:47:10;102615.77;;;-1.83;94.64
68077;BME280;54866;53.458;14.540;2023-01-25T06:49:40;102619.74;;;-1.83;94.77
68077;BME280;54866;53.458;14.540;2023-01-25T06:52:10;102619.75;;;-1.85;94.54
68077;BME280;54866;53.458;14.540;2023-01-25T06:54:39;102620.61;;;-1.85;94.74
68077;BME280;54866;53.458;14.540;2023-01-25T06:57:09;102611.98;;;-1.86;94.95
68077;BME280;54866;53.458;14.540;2023-01-25T06:59:39;102607.83;;;-1.86;95.15
68077;BME280;54866;53.458;14.540;2023-01-25T07:02:10;102603.16;;;-1.85;95.10
68077;BME280;54866;53.458;14.540;2023-01-25T07:04:42;102603.68;;;-1.84;95.02
68077;BME280;54866;53.458;14.540;2023-01-25T07:07:12;102600.57;;;-1.84;95.31
68077;BME280;54866;53.458;14.540;2023-01-25T07:09:41;102599.71;;;-1.84;95.19
68077;BME280;54866;53.458;14.540;2023-01-25T07:12:11;102600.23;;;-1.86;95.11
68077;BME280;54866;53.458;14.540;2023-01-25T07:14:40;102596.42;;;-1.87;95.10
68077;BME280;54866;53.458;14.540;2023-01-25T07:17:10;102594.00;;;-1.88;95.42
68077;BME280;54866;53.458;14.540;2023-01-25T07:19:40;102591.58;;;-1.88;95.39
68077;BME280;54866;53.458;14.540;2023-01-25T07:22:09;102594.87;;;-1.88;95.42
68077;BME280;54866;53.458;14.540;2023-01-25T07:24:39;102591.76;;;-1.87;95.46
68077;BME280;54866;53.458;14.540;2023-01-25T07:27:08;102583.13;;;-1.86;95.39
68077;BME280;54866;53.458;14.540;2023-01-25T07:29:38;102580.54;;;-1.84;95.52
68077;BME280;54866;53.458;14.540;2023-01-25T07:32:09;102578.80;;;-1.81;95.54
68077;BME280;54866;53.458;14.540;2023-01-25T07:34:40;102574.50;;;-1.79;95.53
68077;BME280;54866;53.458;14.540;2023-01-25T07:37:09;102570.00;;;-1.78;95.45
68077;BME280;54866;53.458;14.540;2023-01-25T07:39:39;102569.30;;;-1.77;95.50
68077;BME280;54866;53.458;14.540;2023-01-25T07:42:15;102579.51;;;-1.77;95.18
68077;BME280;54866;53.458;14.540;2023-01-25T07:44:45;102577.77;;;-1.78;95.04
68077;BME280;54866;53.458;14.540;2023-01-25T07:47:14;102565.67;;;-1.80;95.04
68077;BME280;54866;53.458;14.540;2023-01-25T07:49:44;102560.15;;;-1.81;95.34
68077;BME280;54866;53.458;14.540;2023-01-25T07:52:13;102557.39;;;-1.80;95.40
68077;BME280;54866;53.458;14.540;2023-01-25T07:54:43;102551.86;;;-1.82;95.17
68077;BME280;54866;53.458;14.540;2023-01-25T07:57:14;102547.54;;;-1.82;94.99
68077;BME280;54866;53.458;14.540;2023-01-25T07:59:43;102545.81;;;-1.81;94.98
68077;BME280;54866;53.458;14.540;2023-01-25T08:02:13;102548.06;;;-1.81;94.97
68077;BME280;54866;53.458;14.540;2023-01-25T08:04:42;102542.19;;;-1.80;95.05
68077;BME280;54866;53.458;14.540;2023-01-25T08:07:13;102546.33;;;-1.81;95.17
68077;BME280;54866;53.458;14.540;2023-01-25T08:09:42;102547.71;;;-1.80;94.98
68077;BME280;54866;53.458;14.540;2023-01-25T08:12:12;102548.58;;;-1.78;95.14
68077;BME280;54866;53.458;14.540;2023-01-25T08:14:41;102543.91;;;-1.77;95.06
68077;BME280;54866;53.458;14.540;2023-01-25T08:17:11;102537.00;;;-1.77;94.87
68077;BME280;54866;53.458;14.540;2023-01-25T08:19:41;102536.14;;;-1.75;94.68
68077;BME280;54866;53.458;14.540;2023-01-25T08:22:10;102536.31;;;-1.76;94.64
68077;BME280;54866;53.458;14.540;2023-01-25T08:24:40;102539.41;;;-1.76;94.91
68077;BME280;54866;53.458;14.540;2023-01-25T08:27:10;102537.86;;;-1.76;94.90
68077;BME280;54866;53.458;14.540;2023-01-25T08:29:39;102535.11;;;-1.74;94.94
68077;BME280;54866;53.458;14.540;2023-01-25T08:32:09;102528.75;;;-1.72;94.93
68077;BME280;54866;53.458;14.540;2023-01-25T08:34:39;102527.02;;;-1.70;94.85
68077;BME280;54866;53.458;14.540;2023-01-25T08:37:08;102529.95;;;-1.68;94.86
68077;BME280;54866;53.458;14.540;2023-01-25T08:39:38;102533.92;;;-1.67;94.56
68077;BME280;54866;53.458;14.540;2023-01-25T08:42:07;102530.47;;;-1.68;94.71
68077;BME280;54866;53.458;14.540;2023-01-25T08:44:37;102534.63;;;-1.67;94.61
68077;BME280;54866;53.458;14.540;2023-01-25T08:47:06;102532.20;;;-1.66;94.75
68077;BME280;54866;53.458;14.540;2023-01-25T08:49:36;102530.81;;;-1.67;94.49
68077;BME280;54866;53.458;14.540;2023-01-25T08:52:06;102530.81;;;-1.67;94.69
68077;BME280;54866;53.458;14.540;2023-01-25T08:54:35;102527.19;;;-1.67;94.63
68077;BME280;54866;53.458;14.540;2023-01-25T08:57:05;102520.80;;;-1.67;94.83
68077;BME280;54866;53.458;14.540;2023-01-25T08:59:34;102531.34;;;-1.66;94.82
68077;BME280;54866;53.458;14.540;2023-01-25T09:02:04;102530.30;;;-1.67;94.80
68077;BME280;54866;53.458;14.540;2023-01-25T09:04:33;102532.20;;;-1.65;94.68
68077;BME280;54866;53.458;14.540;2023-01-25T09:07:03;102530.64;;;-1.66;95.01
68077;BME280;54866;53.458;14.540;2023-01-25T09:09:34;102527.36;;;-1.65;95.01
68077;BME280;54866;53.458;14.540;2023-01-25T09:12:04;102524.25;;;-1.64;94.94
68077;BME280;54866;53.458;14.540;2023-01-25T09:14:34;102522.01;;;-1.64;94.90
68077;BME280;54866;53.458;14.540;2023-01-25T09:17:06;102525.98;;;-1.62;94.85
68077;BME280;54866;53.458;14.540;2023-01-25T09:19:36;102528.40;;;-1.61;94.78
68077;BME280;54866;53.458;14.540;2023-01-25T09:22:05;102525.98;;;-1.60;94.92
68077;BME280;54866;53.458;14.540;2023-01-25T09:24:35;102520.10;;;-1.60;94.68
68077;BME280;54866;53.458;14.540;2023-01-25T09:27:05;102523.40;;;-1.56;94.73
68077;BME280;54866;53.458;14.540;2023-01-25T09:29:34;102516.13;;;-1.58;94.09
68077;BME280;54866;53.458;14.540;2023-01-25T09:32:04;102514.23;;;-1.60;93.68
68077;BME280;54866;53.458;14.540;2023-01-25T09:34:34;102517.16;;;-1.61;94.28
68077;BME280;54866;53.458;14.540;2023-01-25T09:37:04;102512.49;;;-1.60;94.43
68077;BME280;54866;53.458;14.540;2023-01-25T09:39:34;102505.41;;;-1.61;94.09
68077;BME280;54866;53.458;14.540;2023-01-25T09:42:16;102504.72;;;-1.61;94.02
68077;BME280;54866;53.458;14.540;2023-01-25T09:45:10;102500.05;;;-1.64;94.07
68077;BME280;54866;53.458;14.540;2023-01-25T09:47:46;102499.88;;;-1.61;94.28
68077;BME280;54866;53.458;14.540;2023-01-25T09:50:32;102501.95;;;-1.62;94.08
68077;BME280;54866;53.458;14.540;2023-01-25T09:53:19;102501.27;;;-1.60;94.14
68077;BME280;54866;53.458;14.540;2023-01-25T09:55:56;102493.84;;;-1.62;93.91
68077;BME280;54866;53.458;14.540;2023-01-25T09:58:32;102492.28;;;-1.63;93.89
68077;BME280;54866;53.458;14.540;2023-01-25T10:01:21;102487.96;;;-1.62;94.06
68077;BME280;54866;53.458;14.540;2023-01-25T10:03:56;102481.91;;;-1.63;94.08
68077;BME280;54866;53.458;14.540;2023-01-25T10:06:37;102476.20;;;-1.63;94.15
68077;BME280;54866;53.458;14.540;2023-01-25T10:09:17;102465.83;;;-1.64;94.28
68077;BME280;54866;53.458;14.540;2023-01-25T10:11:50;102459.61;;;-1.61;94.30
68077;BME280;54866;53.458;14.540;2023-01-25T10:14:20;102458.40;;;-1.60;94.35
68077;BME280;54866;53.458;14.540;2023-01-25T10:17:00;102456.16;;;-1.58;94.39
68077;BME280;54866;53.458;14.540;2023-01-25T10:19:40;102455.98;;;-1.56;94.48
68077;BME280;54866;53.458;14.540;2023-01-25T10:22:15;102450.30;;;-1.52;94.36
68077;BME280;54866;53.458;14.540;2023-01-25T10:24:58;102443.39;;;-1.49;94.32
68077;BME280;54866;53.458;14.540;2023-01-25T10:27:40;102439.73;;;-1.46;94.24
68077;BME280;54866;53.458;14.540;2023-01-25T10:30:26;102440.95;;;-1.44;93.98
68077;BME280;54866;53.458;14.540;2023-01-25T10:32:58;102441.98;;;-1.43;93.94
68077;BME280;54866;53.458;14.540;2023-01-25T10:35:30;102434.38;;;-1.46;93.93
68077;BME280;54866;53.458;14.540;2023-01-25T10:38:08;102427.80;;;-1.42;93.92
68077;BME280;54866;53.458;14.540;2023-01-25T10:40:44;102424.87;;;-1.42;93.94
68077;BME280;54866;53.458;14.540;2023-01-25T10:43:17;102415.88;;;-1.41;94.13
68077;BME280;54866;53.458;14.540;2023-01-25T10:45:48;102416.39;;;-1.40;93.79
68077;BME280;54866;53.458;14.540;2023-01-25T10:48:20;102415.88;;;-1.39;93.54
68077;BME280;54866;53.458;14.540;2023-01-25T10:50:53;102405.51;;;-1.44;93.25
68077;BME280;54866;53.458;14.540;2023-01-25T10:53:30;102399.46;;;-1.44;93.52
68077;BME280;54866;53.458;14.540;2023-01-25T10:56:12;102395.83;;;-1.46;93.60
68077;BME280;54866;53.458;14.540;2023-01-25T10:58:47;102392.38;;;-1.46;93.80
68077;BME280;54866;53.458;14.540;2023-01-25T11:01:28;102395.14;;;-1.45;93.74
68077;BME280;54866;53.458;14.540;2023-01-25T11:03:59;102391.86;;;-1.45;93.97
68077;BME280;54866;53.458;14.540;2023-01-25T11:06:35;102383.90;;;-1.44;93.86
68077;BME280;54866;53.458;14.540;2023-01-25T11:09:31;102374.21;;;-1.43;93.81
68077;BME280;54866;53.458;14.540;2023-01-25T11:12:02;102374.05;;;-1.43;93.81
68077;BME280;54866;53.458;14.540;2023-01-25T11:14:34;102367.83;;;-1.44;93.78
68077;BME280;54866;53.458;14.540;2023-01-25T11:17:05;102363.50;;;-1.43;93.69
68077;BME280;54866;53.458;14.540;2023-01-25T11:19:49;102363.84;;;-1.43;93.26
68077;BME280;54866;53.458;14.540;2023-01-25T11:22:33;102356.58;;;-1.43;93.28
68077;BME280;54866;53.458;14.540;2023-01-25T11:25:26;102355.37;;;-1.43;93.39
68077;BME280;54866;53.458;14.540;2023-01-25T11:30:37;102353.65;;;-1.36;93.68
68077;BME280;54866;53.458;14.540;2023-01-25T11:33:11;102347.59;;;-1.36;93.41
68077;BME280;54866;53.458;14.540;2023-01-25T11:35:51;102345.00;;;-1.34;93.37
68077;BME280;54866;53.458;14.540;2023-01-25T11:38:26;102338.27;;;-1.35;93.29
68077;BME280;54866;53.458;14.540;2023-01-25T11:41:03;102339.30;;;-1.37;93.02
68077;BME280;54866;53.458;14.540;2023-01-25T11:43:57;102341.38;;;-1.39;93.27
68077;BME280;54866;53.458;14.540;2023-01-25T11:46:38;102340.67;;;-1.42;93.27
68077;BME280;54866;53.458;14.540;2023-01-25T11:49:24;102332.90;;;-1.43;93.37
68077;BME280;54866;53.458;14.540;2023-01-25T11:52:04;102329.60;;;-1.41;93.48
68077;BME280;54866;53.458;14.540;2023-01-25T11:54:44;102315.61;;;-1.39;93.57
68077;BME280;54866;53.458;14.540;2023-01-25T11:57:28;102313.38;;;-1.35;93.59
68077;BME280;54866;53.458;14.540;2023-01-25T12:00:15;102309.55;;;-1.33;93.46
68077;BME280;54866;53.458;14.540;2023-01-25T12:05:53;102297.95;;;-1.30;93.37
68077;BME280;54866;53.458;14.540;2023-01-25T12:08:48;102292.59;;;-1.30;93.49
68077;BME280;54866;53.458;14.540;2023-01-25T12:11:35;102286.71;;;-1.31;93.46
68077;BME280;54866;53.458;14.540;2023-01-25T12:14:13;102287.58;;;-1.32;93.47
68077;BME280;54866;53.458;14.540;2023-01-25T12:17:03;102279.45;;;-1.32;93.53
68077;BME280;54866;53.458;14.540;2023-01-25T12:19:53;102272.19;;;-1.30;93.64
68077;BME280;54866;53.458;14.540;2023-01-25T12:22:45;102269.75;;;-1.27;93.73
68077;BME280;54866;53.458;14.540;2023-01-25T12:25:27;102268.36;;;-1.26;93.59
68077;BME280;54866;53.458;14.540;2023-01-25T12:28:09;102270.27;;;-1.28;93.56
68077;BME280;54866;53.458;14.540;2023-01-25T12:30:47;102257.48;;;-1.30;93.86
68077;BME280;54866;53.458;14.540;2023-01-25T12:33:21;102249.17;;;-1.27;93.87
68077;BME280;54866;53.458;14.540;2023-01-25T12:35:58;102241.39;;;-1.27;93.97
68077;BME280;54866;53.458;14.540;2023-01-25T12:38:34;102236.02;;;-1.25;93.95
68077;BME280;54866;53.458;14.540;2023-01-25T12:41:10;102232.03;;;-1.22;94.09
68077;BME280;54866;53.458;14.540;2023-01-25T12:43:47;102225.46;;;-1.19;94.17
68077;BME280;54866;53.458;14.540;2023-01-25T12:46:25;102218.88;;;-1.18;94.11
68077;BME280;54866;53.458;14.540;2023-01-25T12:48:58;102215.08;;;-1.17;94.01
68077;BME280;54866;53.458;14.540;2023-01-25T12:51:37;102214.20;;;-1.16;94.01
68077;BME280;54866;53.458;14.540;2023-01-25T12:54:16;102211.27;;;-1.16;93.80
68077;BME280;54866;53.458;14.540;2023-01-25T12:56:51;102211.95;;;-1.14;93.72
68077;BME280;54866;53.458;14.540;2023-01-25T12:59:32;102203.80;;;-1.13;93.94
68077;BME280;54866;53.458;14.540;2023-01-25T13:02:17;102200.52;;;-1.13;93.78
68077;BME280;54866;53.458;14.540;2023-01-25T13:05:00;102193.09;;;-1.15;94.04
68077;BME280;54866;53.458;14.540;2023-01-25T13:07:36;102194.48;;;-1.17;93.97
68077;BME280;54866;53.458;14.540;2023-01-25T13:10:15;102190.69;;;-1.16;94.10
68077;BME280;54866;53.458;14.540;2023-01-25T13:12:54;102184.80;;;-1.15;94.40